createdAt,value
2022-08-23T00:00:53.764Z,1.83
2022-08-23T00:03:21.178Z,2.35
2022-08-23T00:05:48.761Z,2.45
2022-08-23T00:08:16.077Z,2.05
2022-08-23T00:10:43.177Z,2.00
2022-08-23T00:13:10.414Z,2.08
2022-08-23T00:15:37.852Z,2.00
2022-08-23T00:18:05.282Z,2.10
2022-08-23T00:20:32.799Z,2.35
2022-08-23T00:22:59.742Z,1.60
2022-08-23T00:25:27.124Z,2.53
2022-08-23T00:27:54.114Z,2.05
2022-08-23T00:30:21.483Z,2.00
2022-08-23T00:32:49.369Z,2.58
2022-08-23T00:35:26.583Z,2.13
2022-08-23T00:38:33.389Z,2.58
2022-08-23T00:40:53.413Z,2.05
2022-08-23T00:43:48.056Z,1.77
2022-08-23T00:46:58.688Z,2.30
2022-08-23T00:49:26.414Z,2.15
2022-08-23T00:52:00.078Z,2.40
2022-08-23T00:54:30.332Z,2.63
2022-08-23T00:57:00.556Z,2.53
2022-08-23T01:01:56.188Z,2.30
2022-08-23T01:04:24.873Z,2.00
2022-08-23T01:07:02.099Z,2.08
2022-08-23T01:09:29.554Z,1.65
2022-08-23T01:11:57.475Z,2.22
2022-08-23T01:14:24.833Z,1.95
2022-08-23T01:17:06.822Z,2.10
2022-08-23T01:19:37.457Z,1.65
2022-08-23T01:22:36.284Z,2.20
2022-08-23T01:25:09.279Z,2.17
2022-08-23T01:27:41.049Z,2.15
2022-08-23T01:30:12.377Z,2.17
2022-08-23T01:32:51.382Z,2.03
2022-08-23T01:37:53.573Z,2.33
2022-08-23T01:40:21.131Z,2.00
2022-08-23T01:42:49.480Z,2.30
2022-08-23T01:45:17.473Z,1.80
2022-08-23T01:47:45.371Z,2.10
2022-08-23T01:50:13.813Z,2.15
2022-08-23T01:52:46.676Z,1.90
2022-08-23T01:55:17.138Z,2.20
2022-08-23T01:57:48.329Z,2.60
2022-08-23T02:00:19.274Z,1.98
2022-08-23T02:02:47.195Z,2.60
2022-08-23T02:05:14.641Z,2.03
2022-08-23T02:07:47.651Z,2.50
2022-08-23T02:10:16.908Z,2.42
2022-08-23T02:12:44.747Z,2.42
2022-08-23T02:15:16.009Z,2.55
2022-08-23T02:17:44.900Z,1.93
2022-08-23T02:20:12.494Z,2.35
2022-08-23T02:22:40.002Z,2.13
2022-08-23T02:25:08.256Z,1.55
2022-08-23T02:27:35.987Z,2.22
2022-08-23T02:30:03.513Z,1.98
2022-08-23T02:32:32.303Z,2.08
2022-08-23T02:35:05.164Z,2.30
2022-08-23T02:37:35.311Z,2.13
2022-08-23T02:40:03.237Z,2.67
2022-08-23T02:42:31.753Z,2.25
2022-08-23T02:45:00.650Z,2.10
2022-08-23T02:47:30.327Z,2.42
2022-08-23T02:50:09.417Z,2.30
2022-08-23T02:52:36.665Z,1.77
2022-08-23T02:55:05.338Z,2.63
2022-08-23T02:57:32.793Z,1.90
2022-08-23T03:00:02.985Z,1.95
2022-08-23T03:02:31.307Z,1.88
2022-08-23T03:04:58.986Z,2.35
2022-08-23T03:07:26.560Z,2.40
2022-08-23T03:09:54.133Z,2.30
2022-08-23T03:12:21.670Z,2.25
2022-08-23T03:14:53.576Z,2.28
2022-08-23T03:17:21.432Z,1.92
2022-08-23T03:19:49.773Z,2.00
2022-08-23T03:22:16.886Z,2.40
2022-08-23T03:24:45.558Z,2.25
2022-08-23T03:27:13.506Z,2.67
2022-08-23T03:29:42.087Z,2.30
2022-08-23T03:32:09.498Z,2.25
2022-08-23T03:34:38.977Z,2.60
2022-08-23T03:37:08.683Z,2.08
2022-08-23T03:39:36.639Z,2.28
2022-08-23T03:42:04.288Z,2.17
2022-08-23T03:47:02.347Z,2.08
2022-08-23T03:49:29.476Z,2.50
2022-08-23T03:51:58.230Z,2.42
2022-08-23T03:54:25.789Z,2.55
2022-08-23T03:57:07.371Z,2.17
2022-08-23T03:59:37.591Z,2.25
2022-08-23T04:02:08.374Z,2.67
2022-08-23T04:04:36.117Z,2.35
2022-08-23T04:07:23.753Z,2.67
2022-08-23T04:09:55.637Z,2.00
2022-08-23T04:12:26.039Z,2.65
2022-08-23T04:14:53.816Z,2.30
2022-08-23T04:17:22.792Z,2.33
2022-08-23T04:19:51.717Z,2.20
2022-08-23T04:22:22.391Z,2.28
2022-08-23T04:24:50.231Z,2.42
2022-08-23T04:27:18.200Z,2.35
2022-08-23T04:29:46.931Z,2.90
2022-08-23T04:32:26.589Z,2.47
2022-08-23T04:34:57.653Z,2.60
2022-08-23T04:37:25.090Z,2.67
2022-08-23T04:40:11.271Z,2.42
2022-08-23T04:42:42.543Z,2.25
2022-08-23T04:45:11.693Z,3.08
2022-08-23T04:47:44.805Z,2.50
2022-08-23T04:50:12.067Z,2.60
2022-08-23T04:52:59.599Z,2.40
2022-08-23T04:55:27.387Z,2.50
2022-08-23T05:00:42.963Z,2.50
2022-08-23T05:03:11.155Z,2.17
2022-08-23T05:05:41.888Z,2.35
2022-08-23T05:10:37.280Z,2.40
2022-08-23T05:13:04.850Z,2.30
2022-08-23T05:15:32.550Z,2.53
2022-08-23T05:18:04.737Z,1.90
2022-08-23T05:20:33.743Z,2.05
2022-08-23T05:23:02.278Z,2.33
2022-08-23T05:25:49.576Z,2.78
2022-08-23T05:28:30.404Z,2.22
2022-08-23T05:31:04.602Z,2.00
2022-08-23T05:33:40.615Z,1.90
2022-08-23T05:36:09.388Z,1.80
2022-08-23T05:38:37.362Z,2.20
2022-08-23T05:41:06.929Z,2.33
2022-08-23T05:43:35.217Z,2.60
2022-08-23T05:46:13.269Z,1.95
2022-08-23T05:48:47.026Z,1.88
2022-08-23T05:51:17.493Z,2.30
2022-08-23T05:53:45.393Z,1.90
2022-08-23T05:56:22.152Z,1.75
2022-08-23T05:58:52.163Z,1.80
2022-08-23T06:01:22.262Z,1.90
2022-08-23T06:03:53.865Z,1.58
2022-08-23T06:06:21.507Z,1.50
2022-08-23T06:08:49.346Z,1.60
2022-08-23T06:11:21.044Z,2.33
2022-08-23T06:13:50.485Z,1.67
2022-08-23T06:16:21.039Z,1.75
2022-08-23T06:18:48.708Z,1.63
2022-08-23T06:21:37.340Z,1.85
2022-08-23T06:24:04.942Z,2.05
2022-08-23T06:26:38.771Z,1.75
2022-08-23T06:29:10.656Z,1.80
2022-08-23T06:31:45.431Z,1.90
2022-08-23T06:34:16.603Z,1.77
2022-08-23T06:37:23.016Z,1.73
2022-08-23T06:40:04.836Z,1.90
2022-08-23T06:42:40.208Z,1.63
2022-08-23T06:45:09.703Z,1.75
2022-08-23T06:47:41.825Z,1.77
2022-08-23T06:50:11.077Z,1.85
2022-08-23T06:52:56.779Z,1.80
2022-08-23T06:58:22.332Z,1.33
2022-08-23T07:01:52.110Z,2.05
2022-08-23T07:04:39.929Z,2.05
2022-08-23T07:07:11.868Z,2.00
2022-08-23T07:09:40.851Z,1.58
2022-08-23T07:12:08.919Z,1.65
2022-08-23T07:14:39.103Z,1.80
2022-08-23T07:17:06.583Z,1.40
2022-08-23T07:19:35.458Z,1.40
2022-08-23T07:22:04.390Z,1.40
2022-08-23T07:24:33.758Z,1.40
2022-08-23T07:27:07.142Z,1.35
2022-08-23T07:29:39.787Z,1.50
2022-08-23T07:32:07.985Z,1.42
2022-08-23T07:34:36.974Z,1.67
2022-08-23T07:37:11.325Z,1.30
2022-08-23T07:39:44.115Z,1.60
2022-08-23T07:42:23.710Z,2.38
2022-08-23T07:44:54.421Z,1.63
2022-08-23T07:47:24.388Z,1.30
2022-08-23T07:49:54.917Z,1.83
2022-08-23T07:52:22.475Z,2.20
2022-08-23T07:54:50.010Z,1.42
2022-08-23T07:57:35.665Z,1.77
2022-08-23T08:00:12.659Z,1.58
2022-08-23T08:02:40.758Z,1.70
2022-08-23T08:05:21.416Z,1.85
2022-08-23T08:07:49.672Z,1.55
2022-08-23T08:10:17.199Z,1.50
2022-08-23T08:12:46.118Z,1.48
2022-08-23T08:15:19.455Z,1.42
2022-08-23T08:17:53.679Z,1.80
2022-08-23T08:20:21.931Z,1.63
2022-08-23T08:23:04.575Z,1.50
2022-08-23T08:26:06.887Z,1.50
2022-08-23T08:28:36.173Z,1.50
2022-08-23T08:31:04.441Z,1.92
2022-08-23T08:33:34.298Z,1.70
2022-08-23T08:36:03.480Z,1.30
2022-08-23T08:38:36.803Z,1.60
2022-08-23T08:41:19.204Z,1.30
2022-08-23T08:44:12.710Z,1.48
2022-08-23T08:46:45.404Z,1.35
2022-08-23T08:49:42.677Z,1.20
2022-08-23T08:52:13.297Z,1.77
2022-08-23T08:54:47.884Z,1.55
2022-08-23T08:57:18.626Z,1.38
2022-08-23T09:00:02.185Z,1.30
2022-08-23T09:02:35.351Z,1.92
2022-08-23T09:05:34.362Z,1.25
2022-08-23T09:08:14.075Z,1.33
2022-08-23T09:11:10.864Z,1.30
2022-08-23T09:14:19.386Z,1.30
2022-08-23T09:17:05.644Z,1.23
2022-08-23T09:19:37.369Z,0.88
2022-08-23T09:22:13.540Z,0.90
2022-08-23T09:24:41.485Z,1.27
2022-08-23T09:27:21.903Z,1.08
2022-08-23T09:29:56.262Z,1.23
2022-08-23T09:32:38.900Z,1.10
2022-08-23T09:35:22.705Z,1.02
2022-08-23T09:38:21.851Z,1.10
2022-08-23T09:43:27.637Z,1.23
2022-08-23T09:46:01.310Z,1.30
2022-08-23T09:48:43.650Z,1.05
2022-08-23T09:51:30.432Z,1.23
2022-08-23T09:54:23.091Z,1.10
2022-08-23T09:56:57.486Z,1.10
2022-08-23T09:59:47.728Z,1.13
2022-08-23T10:02:23.978Z,1.15
2022-08-23T10:05:29.324Z,1.70
2022-08-23T10:08:00.555Z,1.00
2022-08-23T10:10:34.283Z,1.10
2022-08-23T10:13:06.191Z,1.15
2022-08-23T10:15:59.467Z,1.20
2022-08-23T10:19:04.710Z,1.17
2022-08-23T10:21:47.286Z,1.73
2022-08-23T10:24:15.514Z,1.30
2022-08-23T10:27:41.181Z,1.33
2022-08-23T10:30:27.645Z,1.40
2022-08-23T10:33:25.215Z,1.02
2022-08-23T10:36:10.835Z,1.48
2022-08-23T10:38:38.774Z,1.75
2022-08-23T10:41:33.112Z,1.47
2022-08-23T10:44:48.156Z,1.35
2022-08-23T10:47:53.192Z,1.55
2022-08-23T10:50:22.055Z,1.77
2022-08-23T10:53:17.857Z,1.25
2022-08-23T10:56:02.956Z,1.55
2022-08-23T10:58:47.691Z,1.20
2022-08-23T11:01:21.220Z,1.52
2022-08-23T11:04:14.690Z,1.55
2022-08-23T11:07:14.447Z,1.50
2022-08-23T11:10:16.765Z,2.88
2022-08-23T11:13:00.475Z,1.50
2022-08-23T11:15:44.571Z,1.70
2022-08-23T11:18:43.622Z,1.40
2022-08-23T11:21:19.288Z,1.42
2022-08-23T11:24:16.446Z,1.60
2022-08-23T11:26:44.991Z,1.98
2022-08-23T11:29:22.072Z,1.60
2022-08-23T11:32:38.912Z,1.10
2022-08-23T11:35:30.500Z,1.80
2022-08-23T11:38:05.235Z,1.50
2022-08-23T11:40:57.567Z,1.40
2022-08-23T11:43:40.654Z,1.88
2022-08-23T11:46:23.051Z,1.30
2022-08-23T11:49:03.697Z,1.23
2022-08-23T11:51:45.764Z,1.90
2022-08-23T11:54:42.402Z,1.17
2022-08-23T11:57:35.648Z,1.40
2022-08-23T12:00:14.779Z,1.63
2022-08-23T12:02:47.607Z,1.50
2022-08-23T12:05:18.231Z,1.80
2022-08-23T12:07:45.584Z,1.60
2022-08-23T12:10:17.157Z,1.70
2022-08-23T12:12:47.148Z,1.75
2022-08-23T12:15:17.312Z,1.92
2022-08-23T12:17:45.922Z,1.95
2022-08-23T12:20:26.781Z,1.42
2022-08-23T12:23:13.208Z,1.60
2022-08-23T12:25:41.268Z,1.40
2022-08-23T12:28:17.923Z,2.05
2022-08-23T12:31:13.387Z,1.65
2022-08-23T12:34:17.294Z,1.83
2022-08-23T12:36:44.723Z,1.70
2022-08-23T12:39:26.856Z,1.25
2022-08-23T12:42:05.158Z,1.65
2022-08-23T12:47:21.959Z,1.50
2022-08-23T12:50:02.727Z,1.50
2022-08-23T12:52:33.190Z,1.73
2022-08-23T12:55:00.821Z,2.08
2022-08-23T12:57:36.476Z,1.75
2022-08-23T13:00:17.370Z,1.70
2022-08-23T13:02:55.437Z,1.67
2022-08-23T13:05:31.325Z,1.38
2022-08-23T13:08:00.732Z,1.52
2022-08-23T13:10:28.031Z,1.40
2022-08-23T13:12:55.630Z,1.77
2022-08-23T13:15:45.749Z,1.70
2022-08-23T13:20:50.131Z,2.10
2022-08-23T13:23:28.593Z,1.45
2022-08-23T13:25:55.965Z,2.03
2022-08-23T13:28:26.320Z,1.40
2022-08-23T13:31:08.117Z,1.30
2022-08-23T13:33:35.382Z,1.77
2022-08-23T13:36:16.924Z,1.60
2022-08-23T13:38:44.990Z,1.45
2022-08-23T13:41:35.626Z,1.25
2022-08-23T13:44:09.712Z,1.50
2022-08-23T13:46:45.633Z,1.45
2022-08-23T13:49:18.256Z,1.45
2022-08-23T13:52:18.705Z,1.30
2022-08-23T13:54:51.306Z,1.30
2022-08-23T13:57:21.977Z,1.55
2022-08-23T13:59:52.977Z,2.38
2022-08-23T14:02:22.081Z,1.17
2022-08-23T14:04:49.159Z,1.40
2022-08-23T14:07:16.917Z,1.48
2022-08-23T14:09:44.508Z,1.10
2022-08-23T14:12:18.056Z,1.60
2022-08-23T14:14:46.378Z,1.40
2022-08-23T14:17:16.796Z,1.65
2022-08-23T14:22:34.473Z,1.20
2022-08-23T14:25:02.144Z,1.45
2022-08-23T14:27:29.243Z,1.20
2022-08-23T14:29:56.412Z,1.40
2022-08-23T14:32:23.575Z,1.25
2022-08-23T14:34:53.006Z,1.33
2022-08-23T14:38:00.827Z,1.48
2022-08-23T14:40:09.648Z,1.45
2022-08-23T14:42:36.821Z,1.25
2022-08-23T14:45:05.854Z,1.35
2022-08-23T14:47:35.524Z,1.23
2022-08-23T14:50:07.996Z,1.10
2022-08-23T14:52:38.468Z,1.10
2022-08-23T14:55:06.164Z,1.20
2022-08-23T14:57:33.840Z,1.35
2022-08-23T15:00:01.840Z,1.15
2022-08-23T15:02:30.177Z,1.40
2022-08-23T15:04:57.441Z,1.60
2022-08-23T15:07:24.520Z,1.30
2022-08-23T15:09:55.887Z,1.33
2022-08-23T15:15:15.115Z,1.50
2022-08-23T15:17:52.632Z,1.33
2022-08-23T15:20:25.835Z,1.30
2022-08-23T15:22:55.331Z,1.60
2022-08-23T15:25:27.148Z,1.75
2022-08-23T15:27:54.663Z,1.20
2022-08-23T15:30:23.626Z,1.67
2022-08-23T15:32:52.798Z,1.45
2022-08-23T15:35:25.202Z,0.93
2022-08-23T15:37:54.567Z,1.10
2022-08-23T15:40:22.112Z,1.23
2022-08-23T15:42:49.517Z,1.10
2022-08-23T15:45:16.925Z,1.45
2022-08-23T15:47:44.230Z,1.55
2022-08-23T15:50:11.588Z,1.40
2022-08-23T15:52:38.919Z,1.38
2022-08-23T15:55:06.621Z,1.50
2022-08-23T15:57:42.987Z,1.30
2022-08-23T16:00:15.073Z,1.30
2022-08-23T16:03:13.983Z,1.38
2022-08-23T16:05:30.357Z,1.40
2022-08-23T16:07:58.030Z,1.35
2022-08-23T16:10:27.545Z,0.95
2022-08-23T16:12:55.994Z,1.50
2022-08-23T16:15:23.477Z,1.70
2022-08-23T16:17:50.855Z,1.73
2022-08-23T16:20:17.934Z,1.20
2022-08-23T16:22:45.484Z,1.40
2022-08-23T16:25:12.661Z,1.33
2022-08-23T16:27:40.075Z,1.33
2022-08-23T16:30:08.231Z,1.48
2022-08-23T16:32:40.028Z,1.65
2022-08-23T16:35:07.786Z,1.20
2022-08-23T16:37:36.260Z,1.73
2022-08-23T16:40:05.353Z,1.67
2022-08-23T16:42:32.793Z,1.55
2022-08-23T16:45:00.323Z,1.77
2022-08-23T16:47:28.350Z,1.23
2022-08-23T16:49:55.867Z,1.23
2022-08-23T16:52:31.021Z,1.15
2022-08-23T16:55:04.533Z,1.27
2022-08-23T16:57:32.088Z,1.23
2022-08-23T16:59:59.096Z,1.50
2022-08-23T17:02:30.717Z,1.20
2022-08-23T17:04:58.644Z,1.27
2022-08-23T17:07:26.426Z,1.40
2022-08-23T17:09:53.992Z,1.10
2022-08-23T17:12:22.222Z,1.23
2022-08-23T17:14:51.510Z,1.30
2022-08-23T17:17:18.675Z,1.08
2022-08-23T17:19:46.116Z,1.25
2022-08-23T17:22:13.554Z,1.40
2022-08-23T17:24:40.974Z,1.35
2022-08-23T17:27:08.413Z,1.52
2022-08-23T17:29:37.496Z,1.40
2022-08-23T17:32:05.380Z,1.27
2022-08-23T17:34:32.785Z,1.30
2022-08-23T17:36:59.970Z,1.60
2022-08-23T17:39:29.165Z,1.30
2022-08-23T17:41:57.882Z,1.10
2022-08-23T17:44:25.266Z,1.40
2022-08-23T17:46:53.393Z,1.35
2022-08-23T17:49:21.204Z,2.13
2022-08-23T17:51:48.529Z,1.38
2022-08-23T17:54:16.697Z,1.58
2022-08-23T17:56:50.024Z,1.90
2022-08-23T17:59:19.173Z,1.63
2022-08-23T18:01:46.638Z,1.80
2022-08-23T18:04:14.146Z,1.92
2022-08-23T18:06:41.647Z,1.83
2022-08-23T18:09:09.247Z,1.38
2022-08-23T18:11:36.924Z,1.08
2022-08-23T18:14:04.836Z,1.15
2022-08-23T18:16:35.678Z,1.30
2022-08-23T18:19:04.971Z,1.10
2022-08-23T18:21:33.162Z,1.10
2022-08-23T18:24:00.542Z,1.25
2022-08-23T18:26:46.895Z,1.20
2022-08-23T18:29:14.559Z,1.55
2022-08-23T18:31:44.755Z,1.85
2022-08-23T18:36:39.867Z,1.38
2022-08-23T18:39:08.349Z,1.48
2022-08-23T18:41:35.735Z,0.88
2022-08-23T18:44:05.766Z,1.08
2022-08-23T18:46:34.632Z,1.52
2022-08-23T18:49:02.285Z,1.13
2022-08-23T18:51:30.923Z,1.13
2022-08-23T18:53:59.256Z,1.38
2022-08-23T18:56:26.773Z,1.33
2022-08-23T18:58:54.506Z,1.35
2022-08-23T19:01:22.071Z,1.20
2022-08-23T19:06:40.306Z,1.20
2022-08-23T19:09:08.852Z,1.38
2022-08-23T19:11:40.714Z,0.98
2022-08-23T19:16:56.766Z,1.10
2022-08-23T19:19:24.095Z,1.40
2022-08-23T19:21:51.412Z,1.30
2022-08-23T19:24:18.783Z,1.35
2022-08-23T19:26:47.796Z,1.27
2022-08-23T19:29:16.147Z,1.08
2022-08-23T19:31:46.748Z,1.25
2022-08-23T19:34:16.223Z,0.77
2022-08-23T19:36:46.961Z,1.75
2022-08-23T19:39:15.377Z,1.02
2022-08-23T19:41:42.755Z,1.17
2022-08-23T19:44:10.540Z,1.50
2022-08-23T19:46:41.863Z,1.20
2022-08-23T19:49:10.940Z,1.48
2022-08-23T19:51:38.860Z,1.35
2022-08-23T19:54:11.335Z,1.75
2022-08-23T19:56:44.879Z,1.35
2022-08-23T19:59:16.460Z,1.45
2022-08-23T20:01:44.677Z,1.55
2022-08-23T20:04:12.903Z,1.52
2022-08-23T20:06:40.305Z,1.10
2022-08-23T20:09:08.162Z,0.90
2022-08-23T20:11:35.705Z,1.40
2022-08-23T20:14:05.152Z,1.20
2022-08-23T20:16:33.377Z,1.20
2022-08-23T20:19:01.536Z,1.10
2022-08-23T20:21:29.123Z,1.10
2022-08-23T20:24:03.940Z,1.27
2022-08-23T20:26:35.236Z,1.10
2022-08-23T20:29:04.348Z,1.10
2022-08-23T20:31:45.962Z,1.20
2022-08-23T20:34:16.974Z,1.13
2022-08-23T20:36:45.406Z,1.30
2022-08-23T20:39:13.270Z,1.30
2022-08-23T20:41:41.194Z,1.90
2022-08-23T20:44:09.370Z,1.52
2022-08-23T20:46:37.032Z,1.30
2022-08-23T20:49:05.243Z,1.80
2022-08-23T20:51:36.629Z,1.33
2022-08-23T20:54:05.503Z,1.25
2022-08-23T20:56:33.204Z,1.10
2022-08-23T20:59:00.510Z,1.52
2022-08-23T21:01:27.976Z,1.23
2022-08-23T21:03:55.470Z,1.10
2022-08-23T21:06:26.191Z,1.00
2022-08-23T21:08:54.734Z,1.40
2022-08-23T21:11:25.239Z,1.38
2022-08-23T21:13:53.163Z,1.65
2022-08-23T21:16:20.818Z,1.38
2022-08-23T21:18:48.872Z,1.50
2022-08-23T21:21:21.013Z,1.50
2022-08-23T21:23:49.855Z,1.23
2022-08-23T21:26:17.377Z,1.50
2022-08-23T21:28:44.743Z,1.20
2022-08-23T21:31:16.372Z,1.13
2022-08-23T21:33:44.600Z,1.58
2022-08-23T21:36:13.000Z,1.40
2022-08-23T21:38:40.362Z,1.40
2022-08-23T21:41:11.557Z,1.15
2022-08-23T21:43:39.220Z,1.58
2022-08-23T21:46:07.305Z,1.92
2022-08-23T21:48:35.073Z,1.27
2022-08-23T21:51:02.614Z,1.50
2022-08-23T21:53:30.065Z,1.27
2022-08-23T21:55:57.059Z,1.52
2022-08-23T21:58:25.614Z,1.27
2022-08-23T22:00:53.051Z,1.48
2022-08-23T22:03:19.925Z,1.30
2022-08-23T22:05:48.052Z,1.35
2022-08-23T22:08:18.891Z,1.58
2022-08-23T22:10:57.180Z,1.60
2022-08-23T22:13:28.755Z,1.50
2022-08-23T22:15:56.476Z,1.10
2022-08-23T22:18:23.560Z,1.45
2022-08-23T22:20:50.966Z,1.75
2022-08-23T22:23:18.361Z,1.23
2022-08-23T22:25:45.418Z,1.70
2022-08-23T22:28:12.855Z,1.30
2022-08-23T22:30:42.550Z,1.98
2022-08-23T22:33:11.042Z,1.60
2022-08-23T22:35:39.196Z,1.33
2022-08-23T22:38:14.599Z,1.55
2022-08-23T22:40:49.904Z,1.48
2022-08-23T22:43:18.522Z,1.88
2022-08-23T22:46:04.996Z,1.92
2022-08-23T22:48:36.837Z,1.85
2022-08-23T22:51:16.246Z,1.40
2022-08-23T22:53:47.430Z,1.40
2022-08-23T22:56:23.961Z,1.65
2022-08-23T22:58:52.865Z,1.60
2022-08-23T23:01:36.506Z,1.52
2022-08-23T23:04:06.897Z,1.67
2022-08-23T23:06:35.496Z,1.58
2022-08-23T23:09:03.334Z,1.80
2022-08-23T23:11:30.713Z,1.60
2022-08-23T23:13:59.109Z,1.65
2022-08-23T23:16:29.330Z,1.35
2022-08-23T23:19:16.247Z,1.83
2022-08-23T23:21:46.894Z,1.75
2022-08-23T23:24:20.780Z,1.65
2022-08-23T23:26:48.555Z,1.65
2022-08-23T23:29:16.415Z,1.42
2022-08-23T23:31:44.801Z,2.03
2022-08-23T23:34:12.601Z,1.70
2022-08-23T23:36:41.122Z,1.60
2022-08-23T23:39:10.563Z,1.60
2022-08-23T23:41:38.541Z,1.45
2022-08-23T23:44:06.181Z,1.90
2022-08-23T23:46:34.787Z,1.90
2022-08-23T23:49:02.236Z,1.83
2022-08-23T23:51:30.832Z,2.97
2022-08-23T23:54:00.966Z,1.73
2022-08-23T23:56:30.555Z,1.75
2022-08-23T23:58:58.795Z,1.58
